sensor_id;sensor_type;location;lat;lon;timestamp;temperature;humidity
3818;DHT22;1924;48.078;11.516;2022-12-20T00:01:06;1.90;99.90
3818;DHT22;1924;48.078;11.516;2022-12-20T00:03:33;1.80;99.90
3818;DHT22;1924;48.078;11.516;2022-12-20T00:06:00;1.80;99.90
3818;DHT22;1924;48.078;11.516;2022-12-20T00:08:27;1.80;99.90
3818;DHT22;1924;48.078;11.516;2022-12-20T00:10:55;1.90;99.90
3818;DHT22;1924;48.078;11.516;2022-12-20T00:13:22;1.90;99.90
3818;DHT22;1924;48.078;11.516;2022-12-20T00:15:49;1.90;99.90
3818;DHT22;1924;48.078;11.516;2022-12-20T00:18:15;1.90;99.90
3818;DHT22;1924;48.078;11.516;2022-12-20T00:20:42;1.90;99.90
3818;DHT22;1924;48.078;11.516;2022-12-20T00:23:09;1.90;99.90
3818;DHT22;1924;48.078;11.516;2022-12-20T00:25:36;1.90;99.90
3818;DHT22;1924;48.078;11.516;2022-12-20T00:28:04;1.90;99.90
3818;DHT22;1924;48.078;11.516;2022-12-20T00:30:31;1.90;99.90
3818;DHT22;1924;48.078;11.516;2022-12-20T00:32:57;1.90;99.90
3818;DHT22;1924;48.078;11.516;2022-12-20T00:35:24;2.00;99.90
3818;DHT22;1924;48.078;11.516;2022-12-20T00:37:51;2.00;99.90
3818;DHT22;1924;48.078;11.516;2022-12-20T00:40:18;2.00;99.90
3818;DHT22;1924;48.078;11.516;2022-12-20T00:42:45;2.00;99.90
3818;DHT22;1924;48.078;11.516;2022-12-20T00:45:13;2.10;99.90
3818;DHT22;1924;48.078;11.516;2022-12-20T00:47:40;2.10;99.90
3818;DHT22;1924;48.078;11.516;2022-12-20T00:50:07;2.10;99.90
3818;DHT22;1924;48.078;11.516;2022-12-20T00:52:34;2.10;99.90
3818;DHT22;1924;48.078;11.516;2022-12-20T00:55:01;2.10;99.90
3818;DHT22;1924;48.078;11.516;2022-12-20T00:57:27;2.20;99.90
3818;DHT22;1924;48.078;11.516;2022-12-20T00:59:54;2.20;99.90
3818;DHT22;1924;48.078;11.516;2022-12-20T01:02:22;2.20;99.90
3818;DHT22;1924;48.078;11.516;2022-12-20T01:04:49;2.20;99.90
3818;DHT22;1924;48.078;11.516;2022-12-20T01:07:16;2.20;99.90
3818;DHT22;1924;48.078;11.516;2022-12-20T01:09:44;2.30;99.90
3818;DHT22;1924;48.078;11.516;2022-12-20T01:12:10;2.30;99.90
3818;DHT22;1924;48.078;11.516;2022-12-20T01:14:37;2.30;99.90
3818;DHT22;1924;48.078;11.516;2022-12-20T01:17:04;2.30;99.90
3818;DHT22;1924;48.078;11.516;2022-12-20T01:19:32;2.30;99.90
3818;DHT22;1924;48.078;11.516;2022-12-20T01:21:59;2.30;99.90
3818;DHT22;1924;48.078;11.516;2022-12-20T01:24:26;2.30;99.90
3818;DHT22;1924;48.078;11.516;2022-12-20T01:26:53;2.30;99.90
3818;DHT22;1924;48.078;11.516;2022-12-20T01:29:20;2.30;99.90
3818;DHT22;1924;48.078;11.516;2022-12-20T01:31:47;2.40;99.90
3818;DHT22;1924;48.078;11.516;2022-12-20T01:34:14;2.40;99.90
3818;DHT22;1924;48.078;11.516;2022-12-20T01:36:43;2.40;99.90
3818;DHT22;1924;48.078;11.516;2022-12-20T01:39:12;2.40;99.90
3818;DHT22;1924;48.078;11.516;2022-12-20T01:41:40;2.40;99.90
3818;DHT22;1924;48.078;11.516;2022-12-20T05:01:33;2.50;99.90
3818;DHT22;1924;48.078;11.516;2022-12-20T05:04:00;2.50;99.90
3818;DHT22;1924;48.078;11.516;2022-12-20T05:06:27;2.50;99.90
3818;DHT22;1924;48.078;11.516;2022-12-20T05:08:53;2.40;99.90
3818;DHT22;1924;48.078;11.516;2022-12-20T05:11:20;2.50;99.90
3818;DHT22;1924;48.078;11.516;2022-12-20T05:13:47;2.50;99.90
3818;DHT22;1924;48.078;11.516;2022-12-20T05:16:14;2.60;99.90
3818;DHT22;1924;48.078;11.516;2022-12-20T05:18:43;2.60;99.90
3818;DHT22;1924;48.078;11.516;2022-12-20T05:21:10;2.70;99.90
3818;DHT22;1924;48.078;11.516;2022-12-20T05:24:07;2.60;99.90
3818;DHT22;1924;48.078;11.516;2022-12-20T05:27:06;2.70;99.90
3818;DHT22;1924;48.078;11.516;2022-12-20T05:29:33;2.70;99.90
3818;DHT22;1924;48.078;11.516;2022-12-20T05:32:00;2.70;99.90
3818;DHT22;1924;48.078;11.516;2022-12-20T05:34:28;2.70;99.90
3818;DHT22;1924;48.078;11.516;2022-12-20T05:36:55;2.70;99.90
3818;DHT22;1924;48.078;11.516;2022-12-20T05:39:22;2.70;99.90
3818;DHT22;1924;48.078;11.516;2022-12-20T05:41:48;2.70;99.90
3818;DHT22;1924;48.078;11.516;2022-12-20T05:44:15;2.70;99.90
3818;DHT22;1924;48.078;11.516;2022-12-20T05:46:42;2.70;99.90
3818;DHT22;1924;48.078;11.516;2022-12-20T05:49:09;2.70;99.90
3818;DHT22;1924;48.078;11.516;2022-12-20T05:51:37;2.60;99.90
3818;DHT22;1924;48.078;11.516;2022-12-20T05:54:04;2.60;99.90
3818;DHT22;1924;48.078;11.516;2022-12-20T05:56:31;2.60;99.90
3818;DHT22;1924;48.078;11.516;2022-12-20T05:58:58;2.70;99.90
3818;DHT22;1924;48.078;11.516;2022-12-20T06:01:25;2.70;99.90
3818;DHT22;1924;48.078;11.516;2022-12-20T06:03:51;2.70;99.90
3818;DHT22;1924;48.078;11.516;2022-12-20T06:06:18;2.70;99.90
3818;DHT22;1924;48.078;11.516;2022-12-20T06:08:46;2.70;99.90
3818;DHT22;1924;48.078;11.516;2022-12-20T06:11:13;2.60;99.90
3818;DHT22;1924;48.078;11.516;2022-12-20T06:13:40;2.70;99.90
3818;DHT22;1924;48.078;11.516;2022-12-20T06:16:07;2.70;99.90
3818;DHT22;1924;48.078;11.516;2022-12-20T06:18:33;2.70;99.90
3818;DHT22;1924;48.078;11.516;2022-12-20T06:21:00;2.80;99.90
3818;DHT22;1924;48.078;11.516;2022-12-20T06:23:27;2.80;99.90
3818;DHT22;1924;48.078;11.516;2022-12-20T06:25:55;2.80;99.90
3818;DHT22;1924;48.078;11.516;2022-12-20T06:28:22;2.80;99.90
3818;DHT22;1924;48.078;11.516;2022-12-20T06:30:51;2.90;99.90
3818;DHT22;1924;48.078;11.516;2022-12-20T06:33:18;2.90;99.90
3818;DHT22;1924;48.078;11.516;2022-12-20T06:35:45;2.90;99.90
3818;DHT22;1924;48.078;11.516;2022-12-20T06:38:12;2.90;99.90
3818;DHT22;1924;48.078;11.516;2022-12-20T06:40:38;2.90;99.90
3818;DHT22;1924;48.078;11.516;2022-12-20T06:43:07;2.90;99.90
3818;DHT22;1924;48.078;11.516;2022-12-20T06:45:33;3.00;99.90
3818;DHT22;1924;48.078;11.516;2022-12-20T06:48:00;3.00;99.90
3818;DHT22;1924;48.078;11.516;2022-12-20T06:50:27;3.00;99.90
3818;DHT22;1924;48.078;11.516;2022-12-20T06:52:54;3.00;99.90
3818;DHT22;1924;48.078;11.516;2022-12-20T06:55:21;3.10;99.90
3818;DHT22;1924;48.078;11.516;2022-12-20T06:57:47;3.10;99.90
3818;DHT22;1924;48.078;11.516;2022-12-20T07:00:17;3.10;99.90
3818;DHT22;1924;48.078;11.516;2022-12-20T07:02:43;3.10;99.90
3818;DHT22;1924;48.078;11.516;2022-12-20T07:05:10;3.10;99.90
3818;DHT22;1924;48.078;11.516;2022-12-20T07:07:37;3.10;99.90
3818;DHT22;1924;48.078;11.516;2022-12-20T07:10:05;3.00;99.90
3818;DHT22;1924;48.078;11.516;2022-12-20T07:12:32;3.00;99.90
3818;DHT22;1924;48.078;11.516;2022-12-20T07:14:59;3.00;99.90
3818;DHT22;1924;48.078;11.516;2022-12-20T07:17:27;3.00;99.90
3818;DHT22;1924;48.078;11.516;2022-12-20T07:19:54;3.00;99.90
3818;DHT22;1924;48.078;11.516;2022-12-20T07:22:20;3.00;99.90
3818;DHT22;1924;48.078;11.516;2022-12-20T07:24:48;3.00;99.90
3818;DHT22;1924;48.078;11.516;2022-12-20T07:27:14;3.00;99.90
3818;DHT22;1924;48.078;11.516;2022-12-20T07:29:42;3.00;99.90
3818;DHT22;1924;48.078;11.516;2022-12-20T07:32:10;3.10;99.90
3818;DHT22;1924;48.078;11.516;2022-12-20T07:34:39;3.10;99.90
3818;DHT22;1924;48.078;11.516;2022-12-20T07:37:06;3.10;99.90
3818;DHT22;1924;48.078;11.516;2022-12-20T07:39:33;3.10;99.90
3818;DHT22;1924;48.078;11.516;2022-12-20T07:42:00;3.10;99.90
3818;DHT22;1924;48.078;11.516;2022-12-20T07:44:26;3.10;99.90
3818;DHT22;1924;48.078;11.516;2022-12-20T07:46:53;3.20;99.90
3818;DHT22;1924;48.078;11.516;2022-12-20T07:49:20;3.10;99.90
3818;DHT22;1924;48.078;11.516;2022-12-20T07:51:50;3.10;99.90
3818;DHT22;1924;48.078;11.516;2022-12-20T07:54:21;3.10;99.90
3818;DHT22;1924;48.078;11.516;2022-12-20T07:56:51;3.10;99.90
3818;DHT22;1924;48.078;11.516;2022-12-20T07:59:26;3.10;99.90
3818;DHT22;1924;48.078;11.516;2022-12-20T08:01:55;3.10;99.90
3818;DHT22;1924;48.078;11.516;2022-12-20T08:04:24;3.20;99.90
3818;DHT22;1924;48.078;11.516;2022-12-20T08:06:55;3.20;99.90
3818;DHT22;1924;48.078;11.516;2022-12-20T08:09:24;3.20;99.90
3818;DHT22;1924;48.078;11.516;2022-12-20T08:11:52;3.20;99.90
3818;DHT22;1924;48.078;11.516;2022-12-20T08:14:19;3.20;99.90
3818;DHT22;1924;48.078;11.516;2022-12-20T08:16:46;3.20;99.90
3818;DHT22;1924;48.078;11.516;2022-12-20T08:19:13;3.30;99.90
3818;DHT22;1924;48.078;11.516;2022-12-20T08:21:40;3.30;99.90
3818;DHT22;1924;48.078;11.516;2022-12-20T08:24:08;3.40;99.90
3818;DHT22;1924;48.078;11.516;2022-12-20T08:26:37;3.40;99.90
3818;DHT22;1924;48.078;11.516;2022-12-20T08:29:04;3.40;99.90
3818;DHT22;1924;48.078;11.516;2022-12-20T08:31:31;3.40;99.90
3818;DHT22;1924;48.078;11.516;2022-12-20T08:33:57;3.50;99.90
3818;DHT22;1924;48.078;11.516;2022-12-20T08:36:24;3.50;99.90
3818;DHT22;1924;48.078;11.516;2022-12-20T08:38:51;3.50;99.90
3818;DHT22;1924;48.078;11.516;2022-12-20T08:41:19;3.50;99.90
3818;DHT22;1924;48.078;11.516;2022-12-20T08:43:46;3.50;99.90
3818;DHT22;1924;48.078;11.516;2022-12-20T08:46:14;3.60;99.90
3818;DHT22;1924;48.078;11.516;2022-12-20T08:48:40;3.60;99.90
3818;DHT22;1924;48.078;11.516;2022-12-20T08:51:09;3.60;99.90
3818;DHT22;1924;48.078;11.516;2022-12-20T08:53:37;3.70;99.90
3818;DHT22;1924;48.078;11.516;2022-12-20T08:56:05;3.70;99.90
3818;DHT22;1924;48.078;11.516;2022-12-20T08:58:34;3.70;99.90
3818;DHT22;1924;48.078;11.516;2022-12-20T09:01:02;3.70;99.90
3818;DHT22;1924;48.078;11.516;2022-12-20T09:03:31;3.70;99.90
3818;DHT22;1924;48.078;11.516;2022-12-20T09:05:59;3.70;99.90
3818;DHT22;1924;48.078;11.516;2022-12-20T09:08:26;3.80;99.90
3818;DHT22;1924;48.078;11.516;2022-12-20T09:10:53;3.80;99.90
3818;DHT22;1924;48.078;11.516;2022-12-20T09:13:19;3.80;99.90
3818;DHT22;1924;48.078;11.516;2022-12-20T09:15:48;3.90;99.90
3818;DHT22;1924;48.078;11.516;2022-12-20T09:18:15;3.90;99.90
3818;DHT22;1924;48.078;11.516;2022-12-20T09:20:42;4.00;99.90
3818;DHT22;1924;48.078;11.516;2022-12-20T09:23:10;4.00;99.90
3818;DHT22;1924;48.078;11.516;2022-12-20T09:25:37;4.00;99.90
3818;DHT22;1924;48.078;11.516;2022-12-20T09:28:04;4.10;99.90
3818;DHT22;1924;48.078;11.516;2022-12-20T09:30:31;4.10;99.90
3818;DHT22;1924;48.078;11.516;2022-12-20T09:32:59;4.10;99.90
3818;DHT22;1924;48.078;11.516;2022-12-20T09:35:26;4.20;99.90
3818;DHT22;1924;48.078;11.516;2022-12-20T09:37:53;4.20;99.90
3818;DHT22;1924;48.078;11.516;2022-12-20T09:40:29;4.30;99.90
3818;DHT22;1924;48.078;11.516;2022-12-20T09:42:57;4.30;99.90
3818;DHT22;1924;48.078;11.516;2022-12-20T09:45:27;4.30;99.90
3818;DHT22;1924;48.078;11.516;2022-12-20T09:47:56;4.30;99.90
3818;DHT22;1924;48.078;11.516;2022-12-20T09:50:38;4.30;99.90
3818;DHT22;1924;48.078;11.516;2022-12-20T09:53:16;4.40;99.90
3818;DHT22;1924;48.078;11.516;2022-12-20T09:55:52;4.50;99.90
3818;DHT22;1924;48.078;11.516;2022-12-20T09:58:37;4.50;99.90
3818;DHT22;1924;48.078;11.516;2022-12-20T10:01:14;4.50;99.90
3818;DHT22;1924;48.078;11.516;2022-12-20T10:03:41;4.50;99.90
3818;DHT22;1924;48.078;11.516;2022-12-20T10:06:15;4.60;99.90
3818;DHT22;1924;48.078;11.516;2022-12-20T10:08:49;4.60;99.90
3818;DHT22;1924;48.078;11.516;2022-12-20T10:11:37;4.70;99.90
3818;DHT22;1924;48.078;11.516;2022-12-20T10:14:12;4.80;99.90
3818;DHT22;1924;48.078;11.516;2022-12-20T10:16:42;4.80;99.90
3818;DHT22;1924;48.078;11.516;2022-12-20T10:19:38;4.90;99.90
3818;DHT22;1924;48.078;11.516;2022-12-20T10:22:15;4.90;99.90
3818;DHT22;1924;48.078;11.516;2022-12-20T10:24:49;5.00;99.90
3818;DHT22;1924;48.078;11.516;2022-12-20T10:27:20;5.00;99.90
3818;DHT22;1924;48.078;11.516;2022-12-20T10:29:48;5.00;99.90
3818;DHT22;1924;48.078;11.516;2022-12-20T10:32:18;5.10;99.90
3818;DHT22;1924;48.078;11.516;2022-12-20T10:34:53;5.10;99.90
3818;DHT22;1924;48.078;11.516;2022-12-20T10:37:22;5.10;99.90
3818;DHT22;1924;48.078;11.516;2022-12-20T10:39:51;5.30;99.90
3818;DHT22;1924;48.078;11.516;2022-12-20T10:42:30;5.20;99.90
3818;DHT22;1924;48.078;11.516;2022-12-20T10:44:57;5.30;99.90
3818;DHT22;1924;48.078;11.516;2022-12-20T10:47:35;5.30;99.90
3818;DHT22;1924;48.078;11.516;2022-12-20T10:50:15;5.30;99.90
3818;DHT22;1924;48.078;11.516;2022-12-20T10:52:45;5.40;99.90
3818;DHT22;1924;48.078;11.516;2022-12-20T10:55:35;5.40;99.90
3818;DHT22;1924;48.078;11.516;2022-12-20T10:58:03;5.40;99.90
3818;DHT22;1924;48.078;11.516;2022-12-20T11:00:32;5.40;99.90
3818;DHT22;1924;48.078;11.516;2022-12-20T11:03:11;5.40;99.90
3818;DHT22;1924;48.078;11.516;2022-12-20T11:05:38;5.40;99.90
3818;DHT22;1924;48.078;11.516;2022-12-20T11:08:15;5.40;99.90
3818;DHT22;1924;48.078;11.516;2022-12-20T11:10:43;5.40;99.90
3818;DHT22;1924;48.078;11.516;2022-12-20T11:13:19;5.40;99.90
3818;DHT22;1924;48.078;11.516;2022-12-20T11:15:48;5.40;99.90
3818;DHT22;1924;48.078;11.516;2022-12-20T11:18:22;5.50;99.90
3818;DHT22;1924;48.078;11.516;2022-12-20T11:20:56;5.50;99.90
3818;DHT22;1924;48.078;11.516;2022-12-20T11:23:36;5.50;99.90
3818;DHT22;1924;48.078;11.516;2022-12-20T11:26:24;5.60;99.90
3818;DHT22;1924;48.078;11.516;2022-12-20T11:29:02;5.60;99.90
3818;DHT22;1924;48.078;11.516;2022-12-20T11:31:42;5.60;99.90
3818;DHT22;1924;48.078;11.516;2022-12-20T11:34:21;5.70;99.90
3818;DHT22;1924;48.078;11.516;2022-12-20T11:37:08;5.70;99.90
3818;DHT22;1924;48.078;11.516;2022-12-20T11:39:46;5.80;99.90
3818;DHT22;1924;48.078;11.516;2022-12-20T11:42:23;5.80;99.90
3818;DHT22;1924;48.078;11.516;2022-12-20T11:45:01;5.80;99.90
3818;DHT22;1924;48.078;11.516;2022-12-20T11:47:54;5.90;99.90
3818;DHT22;1924;48.078;11.516;2022-12-20T11:50:37;5.90;99.90
3818;DHT22;1924;48.078;11.516;2022-12-20T11:53:09;5.90;99.90
3818;DHT22;1924;48.078;11.516;2022-12-20T11:55:42;5.90;99.90
3818;DHT22;1924;48.078;11.516;2022-12-20T11:58:14;6.00;99.90
3818;DHT22;1924;48.078;11.516;2022-12-20T12:00:48;6.00;99.90
3818;DHT22;1924;48.078;11.516;2022-12-20T12:03:20;6.00;99.90
3818;DHT22;1924;48.078;11.516;2022-12-20T12:05:52;6.00;99.90
3818;DHT22;1924;48.078;11.516;2022-12-20T12:08:24;6.00;99.90
3818;DHT22;1924;48.078;11.516;2022-12-20T12:10:57;6.10;99.90
3818;DHT22;1924;48.078;11.516;2022-12-20T12:13:27;6.00;99.90
3818;DHT22;1924;48.078;11.516;2022-12-20T12:15:58;6.10;99.90
3818;DHT22;1924;48.078;11.516;2022-12-20T12:18:28;5.90;99.90
3818;DHT22;1924;48.078;11.516;2022-12-20T12:21:01;5.90;99.90
3818;DHT22;1924;48.078;11.516;2022-12-20T12:23:36;5.90;99.90
3818;DHT22;1924;48.078;11.516;2022-12-20T12:26:11;5.90;99.90
3818;DHT22;1924;48.078;11.516;2022-12-20T12:28:39;5.90;99.90
3818;DHT22;1924;48.078;11.516;2022-12-20T12:31:10;5.90;99.90
3818;DHT22;1924;48.078;11.516;2022-12-20T12:33:42;5.90;99.90
3818;DHT22;1924;48.078;11.516;2022-12-20T12:36:31;5.90;99.90
3818;DHT22;1924;48.078;11.516;2022-12-20T12:39:27;5.90;99.90
3818;DHT22;1924;48.078;11.516;2022-12-20T12:45:09;5.90;99.90
3818;DHT22;1924;48.078;11.516;2022-12-20T12:47:42;5.90;99.90
3818;DHT22;1924;48.078;11.516;2022-12-20T12:50:20;5.90;99.90
3818;DHT22;1924;48.078;11.516;2022-12-20T12:52:50;5.90;99.90
3818;DHT22;1924;48.078;11.516;2022-12-20T12:55:35;5.80;99.90
3818;DHT22;1924;48.078;11.516;2022-12-20T13:01:08;5.80;99.90
3818;DHT22;1924;48.078;11.516;2022-12-20T13:03:40;5.80;99.90
3818;DHT22;1924;48.078;11.516;2022-12-20T13:09:39;5.80;99.90
3818;DHT22;1924;48.078;11.516;2022-12-20T13:15:51;5.70;99.90
3818;DHT22;1924;48.078;11.516;2022-12-20T13:18:26;5.60;99.90
3818;DHT22;1924;48.078;11.516;2022-12-20T13:21:34;5.70;99.90
3818;DHT22;1924;48.078;11.516;2022-12-20T13:27:17;5.50;99.90
3818;DHT22;1924;48.078;11.516;2022-12-20T13:33:02;5.40;99.90
3818;DHT22;1924;48.078;11.516;2022-12-20T13:36:00;5.40;99.90
3818;DHT22;1924;48.078;11.516;2022-12-20T13:39:02;5.30;99.90
3818;DHT22;1924;48.078;11.516;2022-12-20T13:41:39;5.20;99.90
3818;DHT22;1924;48.078;11.516;2022-12-20T13:44:35;5.20;99.90
3818;DHT22;1924;48.078;11.516;2022-12-20T13:47:31;5.20;99.90
3818;DHT22;1924;48.078;11.516;2022-12-20T13:50:00;5.10;99.90
3818;DHT22;1924;48.078;11.516;2022-12-20T13:52:29;5.10;99.90
3818;DHT22;1924;48.078;11.516;2022-12-20T13:54:59;5.10;99.90
3818;DHT22;1924;48.078;11.516;2022-12-20T13:57:30;5.10;99.90
3818;DHT22;1924;48.078;11.516;2022-12-20T14:00:01;5.10;99.90
3818;DHT22;1924;48.078;11.516;2022-12-20T14:02:32;5.10;99.90
3818;DHT22;1924;48.078;11.516;2022-12-20T14:05:00;5.10;99.90
3818;DHT22;1924;48.078;11.516;2022-12-20T14:07:31;5.10;99.90
3818;DHT22;1924;48.078;11.516;2022-12-20T14:09:59;5.20;99.90
3818;DHT22;1924;48.078;11.516;2022-12-20T14:12:27;5.20;99.90
3818;DHT22;1924;48.078;11.516;2022-12-20T14:14:55;5.30;99.90
3818;DHT22;1924;48.078;11.516;2022-12-20T14:17:24;5.40;99.90
3818;DHT22;1924;48.078;11.516;2022-12-20T14:20:05;5.40;99.90
3818;DHT22;1924;48.078;11.516;2022-12-20T14:22:35;5.40;99.90
3818;DHT22;1924;48.078;11.516;2022-12-20T14:25:04;5.40;99.90
3818;DHT22;1924;48.078;11.516;2022-12-20T14:27:34;5.50;99.90
3818;DHT22;1924;48.078;11.516;2022-12-20T14:30:04;5.50;99.90
3818;DHT22;1924;48.078;11.516;2022-12-20T14:32:31;5.50;99.90
3818;DHT22;1924;48.078;11.516;2022-12-20T14:34:58;5.50;99.90
3818;DHT22;1924;48.078;11.516;2022-12-20T14:37:30;5.40;99.90
3818;DHT22;1924;48.078;11.516;2022-12-20T14:40:02;5.30;99.90
3818;DHT22;1924;48.078;11.516;2022-12-20T14:42:33;5.30;99.90
3818;DHT22;1924;48.078;11.516;2022-12-20T14:45:05;5.20;99.90
3818;DHT22;1924;48.078;11.516;2022-12-20T14:47:48;5.10;99.90
3818;DHT22;1924;48.078;11.516;2022-12-20T14:50:18;5.10;99.90
3818;DHT22;1924;48.078;11.516;2022-12-20T14:52:46;5.10;99.90
3818;DHT22;1924;48.078;11.516;2022-12-20T14:55:17;5.10;99.90
3818;DHT22;1924;48.078;11.516;2022-12-20T14:57:46;5.00;99.90
3818;DHT22;1924;48.078;11.516;2022-12-20T15:00:20;4.90;99.90
3818;DHT22;1924;48.078;11.516;2022-12-20T15:03:00;4.90;99.90
3818;DHT22;1924;48.078;11.516;2022-12-20T15:05:52;4.80;99.90
3818;DHT22;1924;48.078;11.516;2022-12-20T15:08:22;4.70;99.90
3818;DHT22;1924;48.078;11.516;2022-12-20T15:10:58;4.70;99.90
3818;DHT22;1924;48.078;11.516;2022-12-20T15:13:30;4.70;99.90
3818;DHT22;1924;48.078;11.516;2022-12-20T15:15:59;4.70;99.90
3818;DHT22;1924;48.078;11.516;2022-12-20T15:18:26;4.70;99.90
3818;DHT22;1924;48.078;11.516;2022-12-20T15:21:02;4.60;99.90
3818;DHT22;1924;48.078;11.516;2022-12-20T15:23:34;4.60;99.90
3818;DHT22;1924;48.078;11.516;2022-12-20T15:26:03;4.60;99.90
3818;DHT22;1924;48.078;11.516;2022-12-20T15:28:31;4.50;99.90
3818;DHT22;1924;48.078;11.516;2022-12-20T15:30:58;4.50;99.90
3818;DHT22;1924;48.078;11.516;2022-12-20T15:33:31;4.60;99.90
3818;DHT22;1924;48.078;11.516;2022-12-20T15:35:59;4.50;99.90
3818;DHT22;1924;48.078;11.516;2022-12-20T15:38:26;4.50;99.90
3818;DHT22;1924;48.078;11.516;2022-12-20T15:40:58;4.50;99.90
3818;DHT22;1924;48.078;11.516;2022-12-20T15:43:33;4.40;99.90
3818;DHT22;1924;48.078;11.516;2022-12-20T15:46:01;4.40;99.90
3818;DHT22;1924;48.078;11.516;2022-12-20T15:48:28;4.40;99.90
3818;DHT22;1924;48.078;11.516;2022-12-20T15:50:56;4.40;99.90
3818;DHT22;1924;48.078;11.516;2022-12-20T15:53:27;4.40;99.90
3818;DHT22;1924;48.078;11.516;2022-12-20T15:55:57;4.40;99.90
3818;DHT22;1924;48.078;11.516;2022-12-20T15:58:24;4.40;99.90
3818;DHT22;1924;48.078;11.516;2022-12-20T16:00:55;4.30;99.90
3818;DHT22;1924;48.078;11.516;2022-12-20T16:03:26;4.40;99.90
3818;DHT22;1924;48.078;11.516;2022-12-20T16:05:55;4.30;99.90
3818;DHT22;1924;48.078;11.516;2022-12-20T16:08:25;4.30;99.90
3818;DHT22;1924;48.078;11.516;2022-12-20T16:10:52;4.30;99.90
3818;DHT22;1924;48.078;11.516;2022-12-20T16:13:22;4.30;99.90
3818;DHT22;1924;48.078;11.516;2022-12-20T16:15:49;4.30;99.90
3818;DHT22;1924;48.078;11.516;2022-12-20T16:18:17;4.30;99.90
3818;DHT22;1924;48.078;11.516;2022-12-20T16:20:44;4.20;99.90
3818;DHT22;1924;48.078;11.516;2022-12-20T16:23:16;4.30;99.90
3818;DHT22;1924;48.078;11.516;2022-12-20T16:25:43;4.20;99.90
3818;DHT22;1924;48.078;11.516;2022-12-20T16:28:10;4.20;99.90
3818;DHT22;1924;48.078;11.516;2022-12-20T16:30:37;4.20;99.90
3818;DHT22;1924;48.078;11.516;2022-12-20T16:33:04;4.20;99.90
3818;DHT22;1924;48.078;11.516;2022-12-20T16:35:35;4.20;99.90
3818;DHT22;1924;48.078;11.516;2022-12-20T16:38:03;4.10;99.90
3818;DHT22;1924;48.078;11.516;2022-12-20T16:40:31;4.10;99.90
3818;DHT22;1924;48.078;11.516;2022-12-20T16:42:59;4.20;99.90
3818;DHT22;1924;48.078;11.516;2022-12-20T16:45:27;4.10;99.90
3818;DHT22;1924;48.078;11.516;2022-12-20T16:47:55;4.10;99.90
3818;DHT22;1924;48.078;11.516;2022-12-20T16:50:24;4.10;99.90
3818;DHT22;1924;48.078;11.516;2022-12-20T16:52:53;4.00;99.90
3818;DHT22;1924;48.078;11.516;2022-12-20T16:55:22;4.00;99.90
3818;DHT22;1924;48.078;11.516;2022-12-20T16:57:49;4.00;99.90
3818;DHT22;1924;48.078;11.516;2022-12-20T17:00:18;4.00;99.90
3818;DHT22;1924;48.078;11.516;2022-12-20T17:02:45;4.00;99.90
3818;DHT22;1924;48.078;11.516;2022-12-20T17:05:25;4.00;99.90
3818;DHT22;1924;48.078;11.516;2022-12-20T17:07:53;4.00;99.90
3818;DHT22;1924;48.078;11.516;2022-12-20T17:10:21;4.00;99.90
3818;DHT22;1924;48.078;11.516;2022-12-20T17:12:48;4.00;99.90
3818;DHT22;1924;48.078;11.516;2022-12-20T17:15:18;4.00;99.90
3818;DHT22;1924;48.078;11.516;2022-12-20T17:17:45;4.00;99.90
3818;DHT22;1924;48.078;11.516;2022-12-20T17:20:13;3.90;99.90
3818;DHT22;1924;48.078;11.516;2022-12-20T17:22:40;3.90;99.90
3818;DHT22;1924;48.078;11.516;2022-12-20T17:25:20;3.90;99.90
3818;DHT22;1924;48.078;11.516;2022-12-20T17:27:48;3.90;99.90
3818;DHT22;1924;48.078;11.516;2022-12-20T17:30:15;3.90;99.90
3818;DHT22;1924;48.078;11.516;2022-12-20T17:32:42;3.80;99.90
3818;DHT22;1924;48.078;11.516;2022-12-20T17:35:24;3.80;99.90
3818;DHT22;1924;48.078;11.516;2022-12-20T17:37:52;3.90;99.90
3818;DHT22;1924;48.078;11.516;2022-12-20T17:40:23;3.80;99.90
3818;DHT22;1924;48.078;11.516;2022-12-20T17:42:50;3.80;99.90
3818;DHT22;1924;48.078;11.516;2022-12-20T17:45:25;3.80;99.90
3818;DHT22;1924;48.078;11.516;2022-12-20T17:47:53;3.80;99.90
3818;DHT22;1924;48.078;11.516;2022-12-20T17:50:21;3.80;99.90
3818;DHT22;1924;48.078;11.516;2022-12-20T17:52:49;3.80;99.90
3818;DHT22;1924;48.078;11.516;2022-12-20T17:55:19;3.80;99.90
3818;DHT22;1924;48.078;11.516;2022-12-20T17:57:48;3.80;99.90
3818;DHT22;1924;48.078;11.516;2022-12-20T18:00:21;3.80;99.90
3818;DHT22;1924;48.078;11.516;2022-12-20T18:02:48;3.80;99.90
3818;DHT22;1924;48.078;11.516;2022-12-20T18:05:15;3.80;99.90
3818;DHT22;1924;48.078;11.516;2022-12-20T18:07:42;3.80;99.90
3818;DHT22;1924;48.078;11.516;2022-12-20T18:10:09;3.80;99.90
3818;DHT22;1924;48.078;11.516;2022-12-20T18:12:38;3.70;99.90
3818;DHT22;1924;48.078;11.516;2022-12-20T18:15:07;3.80;99.90
3818;DHT22;1924;48.078;11.516;2022-12-20T18:17:35;3.80;99.90
3818;DHT22;1924;48.078;11.516;2022-12-20T18:20:02;3.80;99.90
3818;DHT22;1924;48.078;11.516;2022-12-20T18:22:28;3.80;99.90
3818;DHT22;1924;48.078;11.516;2022-12-20T18:24:56;3.80;99.90
3818;DHT22;1924;48.078;11.516;2022-12-20T18:27:23;3.80;99.90
3818;DHT22;1924;48.078;11.516;2022-12-20T18:29:50;3.80;99.90
3818;DHT22;1924;48.078;11.516;2022-12-20T18:32:18;3.80;99.90
3818;DHT22;1924;48.078;11.516;2022-12-20T18:34:45;3.80;99.90
3818;DHT22;1924;48.078;11.516;2022-12-20T18:37:13;3.80;99.90
3818;DHT22;1924;48.078;11.516;2022-12-20T18:39:40;3.80;99.90
3818;DHT22;1924;48.078;11.516;2022-12-20T18:42:06;3.80;99.90
3818;DHT22;1924;48.078;11.516;2022-12-20T18:44:33;3.80;99.90
3818;DHT22;1924;48.078;11.516;2022-12-20T18:47:01;3.70;99.90
3818;DHT22;1924;48.078;11.516;2022-12-20T18:49:30;3.80;99.90
3818;DHT22;1924;48.078;11.516;2022-12-20T18:51:57;3.70;99.90
3818;DHT22;1924;48.078;11.516;2022-12-20T18:54:24;3.70;99.90
3818;DHT22;1924;48.078;11.516;2022-12-20T18:56:51;3.70;99.90
3818;DHT22;1924;48.078;11.516;2022-12-20T18:59:18;3.70;99.90
3818;DHT22;1924;48.078;11.516;2022-12-20T19:01:46;3.70;99.90
3818;DHT22;1924;48.078;11.516;2022-12-20T19:04:13;3.70;99.90
3818;DHT22;1924;48.078;11.516;2022-12-20T19:06:41;3.70;99.90
3818;DHT22;1924;48.078;11.516;2022-12-20T19:09:09;3.70;99.90
3818;DHT22;1924;48.078;11.516;2022-12-20T19:11:37;3.70;99.90
3818;DHT22;1924;48.078;11.516;2022-12-20T19:14:04;3.70;99.90
3818;DHT22;1924;48.078;11.516;2022-12-20T19:16:32;3.70;99.90
3818;DHT22;1924;48.078;11.516;2022-12-20T19:18:59;3.70;99.90
3818;DHT22;1924;48.078;11.516;2022-12-20T19:21:28;3.60;99.90
3818;DHT22;1924;48.078;11.516;2022-12-20T19:23:58;3.60;99.90
3818;DHT22;1924;48.078;11.516;2022-12-20T19:26:26;3.60;99.90
3818;DHT22;1924;48.078;11.516;2022-12-20T19:28:55;3.60;99.90
3818;DHT22;1924;48.078;11.516;2022-12-20T19:31:23;3.60;99.90
3818;DHT22;1924;48.078;11.516;2022-12-20T19:33:52;3.60;99.90
3818;DHT22;1924;48.078;11.516;2022-12-20T19:36:21;3.70;99.90
3818;DHT22;1924;48.078;11.516;2022-12-20T19:38:51;3.70;99.90
3818;DHT22;1924;48.078;11.516;2022-12-20T19:41:22;3.70;99.90
3818;DHT22;1924;48.078;11.516;2022-12-20T19:43:49;3.80;99.90
3818;DHT22;1924;48.078;11.516;2022-12-20T19:46:17;3.80;99.90
3818;DHT22;1924;48.078;11.516;2022-12-20T19:48:45;3.80;99.90
3818;DHT22;1924;48.078;11.516;2022-12-20T19:51:13;3.80;99.90
3818;DHT22;1924;48.078;11.516;2022-12-20T19:53:41;3.90;99.90
3818;DHT22;1924;48.078;11.516;2022-12-20T19:56:09;3.90;99.90
3818;DHT22;1924;48.078;11.516;2022-12-20T19:58:38;3.90;99.90